createdAt,value
2023-03-11T00:02:35.000Z,99452.41
2023-03-11T00:07:36.000Z,99448.65
2023-03-11T00:12:36.000Z,99444.59
2023-03-11T00:17:35.000Z,99444.59
2023-03-11T00:22:36.000Z,99440.71
2023-03-11T00:27:36.000Z,99437.06
2023-03-11T00:32:35.000Z,99433.48
2023-03-11T00:37:36.000Z,99431.17
2023-03-11T00:42:39.000Z,99430.02
2023-03-11T00:47:36.000Z,99429.09
2023-03-11T00:52:36.000Z,99435.3
2023-03-11T00:57:36.000Z,99434.43
2023-03-11T01:02:35.000Z,99428.68
2023-03-11T01:07:35.000Z,99431.49
2023-03-11T01:12:35.000Z,99434.79
2023-03-11T01:17:36.000Z,99438.74
2023-03-11T01:22:36.000Z,99439.27
2023-03-11T01:27:36.000Z,99444.77
2023-03-11T01:32:35.000Z,99444.77
2023-03-11T01:37:35.000Z,99444.23
2023-03-11T01:42:36.000Z,99443.46
2023-03-11T01:47:36.000Z,99442.75
2023-03-11T01:52:36.000Z,99442.77
2023-03-11T01:57:35.000Z,99438.57
2023-03-11T02:02:36.000Z,99434.32
2023-03-11T02:07:36.000Z,99436.52
2023-03-11T02:12:36.000Z,99439.63
2023-03-11T02:17:36.000Z,99438.19
2023-03-11T02:22:35.000Z,99434.92
2023-03-11T02:27:35.000Z,99441.24
2023-03-11T02:32:35.000Z,99441.71
2023-03-11T02:37:36.000Z,99441.71
2023-03-11T02:42:36.000Z,99442.9
2023-03-11T02:47:36.000Z,99434.09
2023-03-11T02:52:36.000Z,99430.62
2023-03-11T02:57:36.000Z,99429.99
2023-03-11T03:02:35.000Z,99435.51
2023-03-11T03:07:36.000Z,99440.17
2023-03-11T03:12:35.000Z,99434.78
2023-03-11T03:17:36.000Z,99441.01
2023-03-11T03:22:36.000Z,99435.66
2023-03-11T03:27:36.000Z,99433.56
2023-03-11T03:32:36.000Z,99433.42
2023-03-11T03:37:35.000Z,99443.09
2023-03-11T03:42:35.000Z,99442.07
2023-03-11T03:47:36.000Z,99443.7
2023-03-11T03:52:35.000Z,99443.7
2023-03-11T03:57:36.000Z,99444.63
2023-03-11T04:02:36.000Z,99438.32
2023-03-11T04:07:36.000Z,99436.21
2023-03-11T04:12:35.000Z,99435.05
2023-03-11T04:17:35.000Z,99426.79
2023-03-11T04:22:35.000Z,99417.05
2023-03-11T04:27:35.000Z,99421.8
2023-03-11T04:32:35.000Z,99412.65
2023-03-11T04:37:36.000Z,99402.51
2023-03-11T04:42:35.000Z,99400.71
2023-03-11T04:47:35.000Z,99392.25
2023-03-11T04:52:36.000Z,99380.99
2023-03-11T04:57:36.000Z,99380.46
2023-03-11T05:02:36.000Z,99379.9
2023-03-11T05:07:36.000Z,99379.9
2023-03-11T05:12:37.000Z,99381.59
2023-03-11T05:17:36.000Z,99380.3
2023-03-11T05:22:36.000Z,99380.57
2023-03-11T05:27:36.000Z,99379.99
2023-03-11T05:32:35.000Z,99378.45
2023-03-11T05:37:35.000Z,99363.69
2023-03-11T05:42:36.000Z,99367.22
2023-03-11T05:47:35.000Z,99367.5
2023-03-11T05:52:36.000Z,99366.43
2023-03-11T05:57:35.000Z,99366.18
2023-03-11T06:02:36.000Z,99362.67
2023-03-11T06:07:43.000Z,99364.37
2023-03-11T06:12:35.000Z,99361.71
2023-03-11T06:17:38.000Z,99361.71
2023-03-11T06:22:35.000Z,99362.08
2023-03-11T06:27:36.000Z,99361.44
2023-03-11T06:32:35.000Z,99359.51
2023-03-11T06:37:36.000Z,99360.9
2023-03-11T06:42:36.000Z,99368.33
2023-03-11T06:47:35.000Z,99364.69
2023-03-11T06:52:35.000Z,99355.96
2023-03-11T06:57:36.000Z,99354.99
2023-03-11T07:02:35.000Z,99341.53
2023-03-11T07:07:35.000Z,99342.7
2023-03-11T07:12:35.000Z,99337.75
2023-03-11T07:17:35.000Z,99344.79
2023-03-11T07:22:36.000Z,99341.58
2023-03-11T07:27:36.000Z,99341.58
2023-03-11T07:32:36.000Z,99335.88
2023-03-11T07:37:35.000Z,99334.62
2023-03-11T07:42:35.000Z,99323.05
2023-03-11T07:47:35.000Z,99321.22
2023-03-11T07:52:36.000Z,99313.14
2023-03-11T07:57:36.000Z,99300.85
2023-03-11T08:02:35.000Z,99291.99
2023-03-11T08:07:35.000Z,99283.78
2023-03-11T08:12:36.000Z,99279.23
2023-03-11T08:17:35.000Z,99268.42
2023-03-11T08:22:36.000Z,99257.79
2023-03-11T08:27:35.000Z,99240.58
2023-03-11T08:32:36.000Z,99236.05
2023-03-11T08:37:36.000Z,99232.65
2023-03-11T08:42:36.000Z,99232.65
2023-03-11T08:47:35.000Z,99226.29
2023-03-11T08:52:35.000Z,99218.77
2023-03-11T08:57:36.000Z,99212.14
2023-03-11T09:02:35.000Z,99204.67
2023-03-11T09:07:36.000Z,99201
2023-03-11T09:12:36.000Z,99192.46
2023-03-11T09:17:35.000Z,99197.35
2023-03-11T09:22:36.000Z,99200.19
2023-03-11T09:27:36.000Z,99192.45
2023-03-11T09:32:36.000Z,99187.57
2023-03-11T09:37:36.000Z,99184.36
2023-03-11T09:42:52.000Z,99176.96
2023-03-11T09:47:36.000Z,99167.28
2023-03-11T09:52:36.000Z,99167.28
2023-03-11T09:57:35.000Z,99156.52
2023-03-11T10:02:36.000Z,99148.38
2023-03-11T10:07:35.000Z,99137.31
2023-03-11T10:12:36.000Z,99135.73
2023-03-11T10:17:38.000Z,99140.12
2023-03-11T10:22:35.000Z,99133.91
2023-03-11T10:27:46.000Z,99119.98
2023-03-11T10:32:36.000Z,99105.39
2023-03-11T10:37:46.000Z,99095.43
2023-03-11T10:42:56.000Z,99085.34
2023-03-11T10:47:35.000Z,99074.94
2023-03-11T10:52:36.000Z,99058.12
2023-03-11T10:57:36.000Z,99043.6
2023-03-11T11:02:37.000Z,99035.16
2023-03-11T11:07:36.000Z,99035.16
2023-03-11T11:12:36.000Z,99029.76
2023-03-11T11:17:35.000Z,99013.88
2023-03-11T11:22:36.000Z,99010.82
2023-03-11T11:27:36.000Z,99008.11
2023-03-11T11:32:35.000Z,99005.69
2023-03-11T11:37:36.000Z,98996.35
2023-03-11T11:42:36.000Z,98984.5
2023-03-11T11:47:36.000Z,98977.92
2023-03-11T11:52:35.000Z,98968.09
2023-03-11T11:57:35.000Z,98957.04
2023-03-11T12:02:36.000Z,98955.14
2023-03-11T12:07:35.000Z,98954.03
2023-03-11T12:12:35.000Z,98952.8
2023-03-11T12:17:36.000Z,98942.51
2023-03-11T12:22:35.000Z,98942.51
2023-03-11T12:27:35.000Z,98930.76
2023-03-11T12:32:36.000Z,98929.99
2023-03-11T12:37:35.000Z,98922.85
2023-03-11T12:42:35.000Z,98920.62
2023-03-11T12:47:35.000Z,98913.98
2023-03-11T12:52:36.000Z,98913.92
2023-03-11T12:57:35.000Z,98911.54
2023-03-11T13:02:35.000Z,98909.62
2023-03-11T13:07:36.000Z,98904.54
2023-03-11T13:12:35.000Z,98889.33
2023-03-11T13:17:36.000Z,98876.67
2023-03-11T13:22:36.000Z,98875.99
2023-03-11T13:27:36.000Z,98878.68
2023-03-11T13:32:38.000Z,98878.68
2023-03-11T13:37:36.000Z,98872.8
2023-03-11T13:42:35.000Z,98862.26
2023-03-11T13:47:35.000Z,98857.3
2023-03-11T13:52:36.000Z,98854.53
2023-03-11T13:57:35.000Z,98843.15
2023-03-11T14:02:36.000Z,98836.46
2023-03-11T14:07:36.000Z,98826.79
2023-03-11T14:12:36.000Z,98819.44
2023-03-11T14:17:35.000Z,98813.33
2023-03-11T14:22:36.000Z,98802.79
2023-03-11T14:27:35.000Z,98800
2023-03-11T14:32:36.000Z,98793.64
2023-03-11T14:37:35.000Z,98785.88
2023-03-11T14:42:36.000Z,98785.88
2023-03-11T14:47:36.000Z,98779.74
2023-03-11T14:52:35.000Z,98765.86
2023-03-11T14:57:48.000Z,98750.59
2023-03-11T15:02:36.000Z,98744.3
2023-03-11T15:07:36.000Z,98739.67
2023-03-11T15:12:36.000Z,98736.34
2023-03-11T15:17:51.000Z,98719.07
2023-03-11T15:22:36.000Z,98728.71
2023-03-11T15:27:35.000Z,98732.87
2023-03-11T15:32:36.000Z,98725.63
2023-03-11T15:37:36.000Z,98723.42
2023-03-11T15:42:36.000Z,98728.95
2023-03-11T15:47:35.000Z,98728.95
2023-03-11T15:52:36.000Z,98722.9
2023-03-11T15:57:36.000Z,98715.2
2023-03-11T16:02:37.000Z,98704.99
2023-03-11T16:07:50.000Z,98682.13
2023-03-11T16:12:36.000Z,98661.14
2023-03-11T16:17:49.000Z,98653.59
2023-03-11T16:22:36.000Z,98648.72
2023-03-11T16:27:36.000Z,98646.62
2023-03-11T16:32:35.000Z,98635.32
2023-03-11T16:37:35.000Z,98613.73
2023-03-11T16:42:36.000Z,98607.56
2023-03-11T16:47:36.000Z,98609.99
2023-03-11T16:52:36.000Z,98598.96
2023-03-11T16:57:36.000Z,98598.96
2023-03-11T17:02:36.000Z,98596.01
2023-03-11T17:09:45.000Z,98575.93
2023-03-11T17:17:36.000Z,98559.24
2023-03-11T17:22:36.000Z,98549.57
2023-03-11T17:27:35.000Z,98541.6
2023-03-11T17:32:36.000Z,98534.7
2023-03-11T17:37:35.000Z,98533.89
2023-03-11T17:42:35.000Z,98522.07
2023-03-11T17:47:36.000Z,98514.42
2023-03-11T17:52:35.000Z,98495.72
2023-03-11T17:57:35.000Z,98481.71
2023-03-11T18:02:35.000Z,98473.93
2023-03-11T18:07:36.000Z,98473.93
2023-03-11T18:12:42.000Z,98465.09
2023-03-11T18:17:44.000Z,98444.18
2023-03-11T18:22:36.000Z,98433.56
2023-03-11T18:27:35.000Z,98425.23
2023-03-11T18:32:36.000Z,98430.47
2023-03-11T18:37:35.000Z,98426.16
2023-03-11T18:42:35.000Z,98420.6
2023-03-11T18:47:35.000Z,98421.17
2023-03-11T18:52:35.000Z,98409.38
2023-03-11T18:57:36.000Z,98404.44
2023-03-11T19:02:38.000Z,98403.08
2023-03-11T19:07:35.000Z,98387.83
2023-03-11T19:12:36.000Z,98366.13
2023-03-11T19:17:36.000Z,98353.08
2023-03-11T19:22:36.000Z,98353.08
2023-03-11T19:27:35.000Z,98338.05
2023-03-11T19:32:36.000Z,98335.26
2023-03-11T19:37:36.000Z,98309.45
2023-03-11T19:42:36.000Z,98301.78
2023-03-11T19:47:35.000Z,98296.33
2023-03-11T19:52:35.000Z,98277.72
2023-03-11T20:02:35.000Z,98248.06
2023-03-11T20:07:36.000Z,98235.51
2023-03-11T20:12:35.000Z,98222.67
2023-03-11T20:17:36.000Z,98214.13
2023-03-11T20:22:35.000Z,98212.98
2023-03-11T20:27:36.000Z,98201.54
2023-03-11T20:32:36.000Z,98201.54
2023-03-11T20:37:36.000Z,98194.21
2023-03-11T20:42:36.000Z,98175.88
2023-03-11T20:47:36.000Z,98159.8
2023-03-11T20:52:36.000Z,98156.29
2023-03-11T20:57:35.000Z,98140.84
2023-03-11T21:02:36.000Z,98128.99
2023-03-11T21:07:35.000Z,98122.24
2023-03-11T21:12:36.000Z,98105.77
2023-03-11T21:17:36.000Z,98092.18
2023-03-11T21:22:36.000Z,98073.44
2023-03-11T21:27:36.000Z,98063.57
2023-03-11T21:32:36.000Z,98047.22
2023-03-11T21:37:36.000Z,98035.2
2023-03-11T21:42:41.000Z,98035.2
2023-03-11T21:47:41.000Z,98017.5
2023-03-11T21:52:36.000Z,98004.49
2023-03-11T21:57:35.000Z,97989.29
2023-03-11T22:02:35.000Z,97977.48
2023-03-11T22:07:36.000Z,97960.52
2023-03-11T22:12:36.000Z,97945.17
2023-03-11T22:17:35.000Z,97937.62
2023-03-11T22:22:35.000Z,97930.36
2023-03-11T22:27:36.000Z,97917.57
2023-03-11T22:32:39.000Z,97906.54
2023-03-11T22:37:36.000Z,97897.17
2023-03-11T22:42:36.000Z,97889.32
2023-03-11T22:47:35.000Z,97880.43
2023-03-11T22:52:35.000Z,97880.43
2023-03-11T22:57:36.000Z,97870.07
2023-03-11T23:02:36.000Z,97858.67
2023-03-11T23:07:35.000Z,97849.04
2023-03-11T23:12:36.000Z,97839.84
2023-03-11T23:17:36.000Z,97829.97
2023-03-11T23:22:36.000Z,97813.68
2023-03-11T23:27:35.000Z,97796.82
2023-03-11T23:32:36.000Z,97776.26
2023-03-11T23:37:35.000Z,97763.92
2023-03-11T23:42:36.000Z,97757.69
2023-03-11T23:47:35.000Z,97750.72
2023-03-11T23:52:36.000Z,97743.06
2023-03-11T23:57:36.000Z,97727.02
